Strona główna
METAR-TAF:

METAR-TAF

Lotnisko :

Topcliffe, Anglia

Szerokość geograficzna: 54-12N, Długość geograficzna: 001-23W, wysokość: 28 m

Aktualna obserwacja pogody

Raport powstał 35 minut temu, godzina 15:50 UTC
Wiatr 4 kt od zachodnio-północny zachód
Temperatura 7°C
Wilgotność 76%
Ciśnienie 1013 hPa
Widzialność 10 km lub więcej

METAR: EGXZ 251550Z AUTO 29004KT 9999 NCD 07/03 Q1013

czas: 16:25 (16:25 UTC)


TAF: brakujący

Obserwacja i prognoza pogody dla ponad 4000 lotnisk (raport METAR i TAF).

Dostępne stacje oznaczono żółtymi i czerwonymi punktami na mapie.

Najedź kursorem aby zobaczyć nazwę stacji.

Kliknij aby zobaczyć obserwacje i prognozy pogody.

Aby zmienić mapę: kliknij na zielony przycisk z czarnym krzyżykiem, aby powiększyć; na zielony przycisk z myślnikiem, aby pomniejszyć; na zielone strzałki, aby przejść do map sąsiednich.


METAR-TAF: